Airfield :
LOGIN :

Register | Disclaimer

   EN    FR    IT 

 










Legend :    VFR   Marginal VFR   IFR   Intensive IFR   Very Intensive IFR
Visi :
Ceiling :
>= 8 km
>= 3000ft
5 to 8 km
1000 to 3000 ft
1500m to 5 km
500 to 1000 ft
800 to 1500m
200 to 500 ft
< 800m
< 200 ft
Symbols :   Thunderstorms  Fog  Heavy snow  Heavy precipitations  Wind > 20 kt
SIGMETs :     Misc.  Thunderstorms  Icing  Turbulence  Mountain Waves  Volcanic Ashes






- Airport Elevation : 277 ft
- IATA code : JER


EGJJ - Jersey

CURRENT METAR :
  • 300820Z 26011KT 240V300 9999 FEW021 15/11 Q1011

EXPIRED METARs :
  • 300750Z 27010KT 9999 SCT020 15/11 Q1011
  • 300720Z 29004KT 9999 FEW022 15/11 Q1011
  • 300650Z 29004KT 9999 FEW023 14/10 Q1011
  • 300620Z 26008KT 9999 SCT023 14/10 Q1011
  • 300550Z 24008KT 9999 FEW025 SCT049 14/10 Q1011

TAF TAF EGJJ
Valid from the 30 at 09:00 until the 30 at 18:00 UTC


300757Z 3009/3018 26003KT 9999 FEW022
BECMG 3009/3012 23013KT
BECMG 3014/3017 21023KT 7000 RA BKN010
PROB30
TEMPO 3016/3018 22024G36KT 3000 RADZ BKN005
ATIS : +44 1534 498 073



MET'MAP, your aeronautical weather chart ! - Copyright ORBIFLY December 2007 - Disclaimer

ORBIFLY MET'MAP TEAM :

Programming & Development : Alexandra Zaïnal
Original concept : Baudouin d'Aumeries
Technical & hardware support : Manuel Goepfert
Assistance : Marc-Olivier Méhu




SOURCES & CREDITS :

   NOAA